Time;durP1;ratioP1;P1;durP2;ratioP2;P2;SDS_P1;SDS_P2;PMS_P1;PMS_P2;Temp;Humidity;BMP_temperature;BMP_pressure;BME280_temperature;BME280_humidity;BME280_pressure;Samples;Min_cycle;Max_cycle;Signal;HPM_P1;HPM_P2
2024/03/29 00:00:44;;;;;;;4.13;2.38;;;;;;;15.49;40.81;96906.97;5092686;28;20490;-45
2024/03/29 00:03:10;;;;;;;1.88;0.90;;;;;;;15.49;40.94;96905.16;5092551;28;20103;-45
2024/03/29 00:05:36;;;;;;;2.92;0.90;;;;;;;15.42;40.97;96899.38;5091276;28;20038;-45
2024/03/29 00:08:03;;;;;;;2.22;0.57;;;;;;;15.29;41.15;96915.84;5091243;28;20100;-44
2024/03/29 00:10:29;;;;;;;3.75;0.93;;;;;;;15.32;41.26;96902.88;5091146;28;20032;-44
2024/03/29 00:12:54;;;;;;;2.50;0.80;;;;;;;15.38;41.21;96899.13;5092477;28;20024;-45
2024/03/29 00:15:20;;;;;;;1.10;0.52;;;;;;;15.32;41.16;96892.28;5091086;28;20035;-44
2024/03/29 00:17:46;;;;;;;2.75;0.77;;;;;;;15.37;41.36;96897.56;5092363;28;20039;-44
2024/03/29 00:20:12;;;;;;;3.08;1.20;;;;;;;15.39;41.19;96897.25;5092305;28;20093;-45
2024/03/29 00:22:38;;;;;;;2.35;1.00;;;;;;;15.31;41.49;96888.09;5092332;28;20031;-44
2024/03/29 00:25:04;;;;;;;7.00;1.13;;;;;;;15.33;41.11;96901.00;5092592;28;20393;-44
2024/03/29 00:27:30;;;;;;;2.38;1.40;;;;;;;15.26;41.71;96901.31;5092250;28;20073;-44
2024/03/29 00:29:56;;;;;;;1.85;0.70;;;;;;;15.37;41.47;96905.50;5090913;28;20051;-45
2024/03/29 00:32:22;;;;;;;4.15;1.20;;;;;;;15.48;41.04;96897.47;5092173;28;20378;-45
2024/03/29 00:34:50;;;;;;;3.05;1.00;;;;;;;15.53;41.81;96881.56;5090924;28;20024;-44
2024/03/29 00:37:16;;;;;;;2.40;0.88;;;;;;;15.56;40.66;96881.81;5091978;28;20026;-44
2024/03/29 00:39:42;;;;;;;5.40;1.10;;;;;;;15.43;41.12;96871.84;5090490;28;20040;-45
2024/03/29 00:42:16;;;;;;;2.65;0.82;;;;;;;15.47;41.37;96893.25;5092038;28;20028;-45
2024/03/29 00:44:42;;;;;;;6.23;1.10;;;;;;;15.46;41.86;96884.53;5092073;28;20401;-45
2024/03/29 00:47:08;;;;;;;5.25;1.00;;;;;;;15.48;42.06;96900.13;5091190;28;20018;-45
2024/03/29 00:49:34;;;;;;;2.83;0.90;;;;;;;15.53;41.93;96890.31;5090881;28;20023;-45
2024/03/29 00:52:01;;;;;;;3.83;1.20;;;;;;;15.58;41.92;96884.97;5091881;28;20027;-45
2024/03/29 00:54:26;;;;;;;4.28;1.05;;;;;;;15.56;42.06;96891.59;5092154;28;20102;-44
2024/03/29 00:56:52;;;;;;;2.67;0.80;;;;;;;15.52;42.54;96883.44;5091815;28;20486;-45
2024/03/29 00:59:18;;;;;;;4.00;0.90;;;;;;;15.58;42.12;96889.47;5090525;28;20038;-45
2024/03/29 01:01:44;;;;;;;5.05;1.98;;;;;;;15.54;42.49;96891.88;5090509;28;20028;-45
2024/03/29 01:04:10;;;;;;;6.07;1.70;;;;;;;15.49;42.15;96896.41;5090493;28;20043;-44
2024/03/29 01:06:37;;;;;;;1.92;0.70;;;;;;;15.46;42.33;96894.31;5091763;28;20027;-44
2024/03/29 01:09:03;;;;;;;5.88;1.70;;;;;;;15.45;42.51;96890.88;5091799;28;20027;-45
2024/03/29 01:11:29;;;;;;;4.25;1.52;;;;;;;15.48;42.95;96900.91;5090422;28;20027;-45
2024/03/29 01:13:55;;;;;;;5.53;1.08;;;;;;;15.52;42.67;96886.06;5091989;28;20032;-44
2024/03/29 01:16:21;;;;;;;2.92;0.70;;;;;;;15.60;42.64;96875.97;5090178;28;20024;-45
2024/03/29 01:18:47;;;;;;;6.07;1.20;;;;;;;15.60;42.73;96865.41;5091681;28;20035;-45
2024/03/29 01:21:13;;;;;;;4.05;1.45;;;;;;;15.67;42.82;96850.00;5090430;28;20094;-45
2024/03/29 01:23:39;;;;;;;8.10;3.30;;;;;;;15.65;43.03;96868.75;5091646;28;20027;-45
2024/03/29 01:26:06;;;;;;;5.53;2.17;;;;;;;15.65;42.62;96844.97;5091651;28;20055;-44
2024/03/29 01:28:32;;;;;;;32.38;17.75;;;;;;;15.56;43.15;96849.28;5090254;28;20024;-45
2024/03/29 01:31:00;;;;;;;9.63;5.68;;;;;;;15.57;43.42;96849.03;5091523;28;20074;-44
2024/03/29 01:33:26;;;;;;;7.72;4.85;;;;;;;15.52;43.19;96851.69;5091537;28;20077;-44
2024/03/29 01:35:53;;;;;;;6.18;3.55;;;;;;;15.53;44.18;96842.72;5090163;28;20024;-44
2024/03/29 01:38:20;;;;;;;3.20;2.45;;;;;;;15.68;44.01;96856.88;5091472;28;20081;-44
2024/03/29 01:40:45;;;;;;;7.35;1.80;;;;;;;15.86;44.21;96836.91;5091222;28;20074;-45
2024/03/29 01:43:11;;;;;;;3.70;1.30;;;;;;;16.01;43.59;96843.88;5090151;28;20456;-45
2024/03/29 01:45:42;;;;;;;6.93;2.40;;;;;;;16.03;43.43;96844.38;5091403;28;20024;-45
2024/03/29 01:48:11;;;;;;;5.63;2.13;;;;;;;15.99;43.35;96852.09;5091360;28;20035;-45
2024/03/29 01:50:37;;;;;;;5.18;1.10;;;;;;;15.83;43.38;96850.66;5091324;28;20024;-45
2024/03/29 01:53:05;;;;;;;4.00;1.65;;;;;;;15.74;43.97;96855.78;5091358;28;20379;-45
2024/03/29 01:55:31;;;;;;;7.53;1.27;;;;;;;15.82;44.09;96852.53;5090047;28;20024;-45
2024/03/29 01:57:58;;;;;;;9.88;1.98;;;;;;;15.81;44.50;96872.09;5091312;28;20562;-44
2024/03/29 02:00:25;;;;;;;7.10;1.30;;;;;;;15.76;44.80;96858.94;5095177;28;20030;-45
2024/03/29 02:02:51;;;;;;;33.33;22.85;;;;;;;15.82;44.80;96867.63;5094973;28;20055;-45
2024/03/29 02:05:17;;;;;;;17.48;10.57;;;;;;;15.96;44.50;96853.44;5094868;28;20036;-44
2024/03/29 02:07:45;;;;;;;10.55;7.55;;;;;;;16.06;44.32;96862.34;5094948;28;20386;-45
2024/03/29 02:10:12;;;;;;;9.30;3.00;;;;;;;16.14;44.08;96859.09;5094743;28;20024;-45
2024/03/29 02:12:39;;;;;;;20.83;10.35;;;;;;;16.20;43.87;96880.97;5094635;28;20024;-45
2024/03/29 02:15:05;;;;;;;17.77;13.55;;;;;;;16.17;43.97;96869.88;5093415;28;20035;-45
2024/03/29 02:17:32;;;;;;;5.47;3.20;;;;;;;16.19;44.62;96869.63;5093335;28;20490;-45
2024/03/29 02:19:58;;;;;;;3.55;2.22;;;;;;;16.23;44.72;96873.28;5094611;28;20028;-45
2024/03/29 02:22:25;;;;;;;6.10;2.05;;;;;;;16.34;44.83;96882.69;5093264;28;20024;-45
2024/03/29 02:24:55;;;;;;;5.38;1.77;;;;;;;16.33;44.30;96885.63;5094868;28;20024;-44
2024/03/29 02:27:21;;;;;;;8.32;2.15;;;;;;;16.32;44.87;96894.63;5093231;28;20041;-45
2024/03/29 02:29:47;;;;;;;5.55;2.65;;;;;;;16.38;45.24;96882.94;5093178;28;20553;-45
2024/03/29 02:32:13;;;;;;;5.68;4.55;;;;;;;16.58;44.58;96873.97;5093041;28;20032;-45
2024/03/29 02:34:38;;;;;;;5.97;1.70;;;;;;;16.73;43.83;96870.31;5093169;28;20091;-47
2024/03/29 02:37:06;;;;;;;3.40;1.80;;;;;;;16.89;43.76;96852.38;5092839;28;20031;-47
2024/03/29 02:39:32;;;;;;;7.25;2.60;;;;;;;17.05;44.47;96852.97;5092729;28;20020;-48
2024/03/29 02:41:57;;;;;;;5.35;3.08;;;;;;;17.17;44.46;96848.78;5093141;28;20030;-46
2024/03/29 02:44:23;;;;;;;8.10;2.53;;;;;;;17.41;42.88;96836.53;5093006;28;20058;-46
2024/03/29 02:46:49;;;;;;;6.55;1.40;;;;;;;17.49;41.58;96822.59;5094108;28;20099;-47
2024/03/29 02:49:15;;;;;;;5.55;1.60;;;;;;;17.42;41.88;96812.34;5094036;28;20081;-46
2024/03/29 02:51:40;;;;;;;10.77;8.82;;;;;;;17.49;43.05;96812.78;5094085;28;20027;-46
2024/03/29 02:54:06;;;;;;;7.05;3.22;;;;;;;17.91;43.12;96813.66;5092955;28;20039;-47
2024/03/29 02:56:32;;;;;;;7.65;5.07;;;;;;;18.21;42.16;96790.28;5093893;28;20043;-46
2024/03/29 02:58:58;;;;;;;4.68;2.78;;;;;;;18.38;41.54;96797.63;5093968;28;20028;-46
2024/03/29 03:01:24;;;;;;;4.53;1.38;;;;;;;18.47;41.01;96792.38;5092649;28;20046;-47
2024/03/29 03:03:50;;;;;;;6.25;1.60;;;;;;;18.40;41.31;96770.78;5092548;28;20028;-46
2024/03/29 03:06:15;;;;;;;4.85;1.45;;;;;;;18.41;41.47;96765.16;5093800;28;20038;-46
2024/03/29 03:11:25;;;;;;;3.33;1.80;;;;;;;18.25;41.48;96761.22;5092763;28;20043;-46
2024/03/29 03:13:51;;;;;;;3.75;1.38;;;;;;;18.19;41.70;96752.59;5093862;28;20481;-46
2024/03/29 03:16:18;;;;;;;2.60;1.38;;;;;;;18.11;42.03;96740.81;5092138;28;20536;-46
2024/03/29 03:18:43;;;;;;;3.67;1.50;;;;;;;18.09;42.08;96742.97;5093554;28;20051;-47
2024/03/29 03:21:09;;;;;;;3.40;0.60;;;;;;;17.99;42.22;96745.84;5093451;28;20393;-46
2024/03/29 03:23:35;;;;;;;2.88;0.90;;;;;;;17.86;43.03;96738.66;5093400;28;20438;-46
2024/03/29 03:26:05;;;;;;;4.00;1.90;;;;;;;17.79;43.56;96731.06;5093363;28;20043;-46
2024/03/29 03:28:31;;;;;;;5.78;1.20;;;;;;;17.79;43.49;96728.41;5092071;28;20020;-46
2024/03/29 03:30:57;;;;;;;1.73;1.08;;;;;;;17.74;43.61;96720.53;5093221;28;20027;-47
2024/03/29 03:33:23;;;;;;;5.85;1.75;;;;;;;17.70;43.83;96725.66;5093173;28;20056;-47
2024/03/29 03:35:49;;;;;;;2.60;1.50;;;;;;;17.60;44.17;96722.41;5092093;28;20028;-46
2024/03/29 03:38:15;;;;;;;2.75;1.00;;;;;;;17.47;44.28;96740.66;5092054;28;20024;-46
2024/03/29 03:40:41;;;;;;;2.78;1.45;;;;;;;17.28;45.02;96738.06;5092874;28;20052;-47
2024/03/29 03:43:07;;;;;;;4.32;1.10;;;;;;;17.22;45.42;96738.44;5093055;28;20498;-46
2024/03/29 03:45:40;;;;;;;4.25;0.98;;;;;;;17.25;46.04;96735.22;5092961;28;20422;-47
2024/03/29 03:48:09;;;;;;;1.65;0.70;;;;;;;17.30;45.65;96727.97;5092948;28;20103;-47
2024/03/29 03:50:35;;;;;;;2.55;1.00;;;;;;;17.20;46.53;96724.69;5092829;28;20073;-47
2024/03/29 03:53:00;;;;;;;2.67;1.00;;;;;;;17.15;46.87;96738.84;5091512;28;20024;-44
2024/03/29 03:55:26;;;;;;;2.83;1.02;;;;;;;17.08;47.45;96727.81;5092792;28;20032;-45
2024/03/29 03:57:53;;;;;;;3.78;2.33;;;;;;;17.17;47.40;96715.47;5091400;28;20048;-45
2024/03/29 04:00:19;;;;;;;5.13;1.60;;;;;;;17.38;46.81;96697.34;5091362;28;20024;-45
2024/03/29 04:02:52;;;;;;;3.08;1.77;;;;;;;17.45;46.75;96696.97;5092700;28;20028;-45
2024/03/29 04:05:19;;;;;;;3.95;1.00;;;;;;;17.53;46.64;96706.88;5092603;28;20397;-45
2024/03/29 04:07:45;;;;;;;4.43;0.98;;;;;;;17.59;46.51;96711.03;5092583;28;20016;-45
2024/03/29 04:10:11;;;;;;;4.05;1.00;;;;;;;17.55;46.73;96696.78;5092510;28;20077;-45
2024/03/29 04:12:37;;;;;;;7.03;1.75;;;;;;;17.60;46.91;96701.19;5092437;28;20020;-45
2024/03/29 04:15:03;;;;;;;4.40;0.98;;;;;;;17.74;47.00;96694.00;5091092;28;20085;-45
2024/03/29 04:17:33;;;;;;;2.20;0.80;;;;;;;17.71;46.64;96684.78;5092383;28;20020;-44
2024/03/29 04:19:59;;;;;;;3.65;1.40;;;;;;;17.68;47.19;96689.88;5074669;28;20032;-45
2024/03/29 04:22:27;;;;;;;4.97;1.80;;;;;;;17.67;47.47;96688.31;5090915;28;20404;-45
2024/03/29 04:24:53;;;;;;;4.60;1.08;;;;;;;17.64;47.61;96692.34;5092335;28;20027;-45
2024/03/29 04:27:19;;;;;;;6.03;1.50;;;;;;;17.54;48.19;96687.22;5092207;28;20016;-45
2024/03/29 04:29:45;;;;;;;5.38;1.42;;;;;;;17.42;48.29;96682.41;5092240;28;20075;-44
2024/03/29 04:32:11;;;;;;;6.07;1.40;;;;;;;17.48;48.93;96675.16;5092153;28;20497;-45
2024/03/29 04:34:36;;;;;;;4.80;1.63;;;;;;;17.52;48.75;96673.47;5090826;28;20042;-45
2024/03/29 04:37:02;;;;;;;7.05;2.20;;;;;;;17.56;48.87;96659.31;5092072;28;20031;-45
2024/03/29 04:39:28;;;;;;;4.70;2.22;;;;;;;17.63;49.36;96680.16;5092110;28;20431;-45
2024/03/29 04:41:54;;;;;;;7.30;3.67;;;;;;;17.72;49.38;96683.69;5091873;28;20569;-45
2024/03/29 04:44:28;;;;;;;5.15;2.03;;;;;;;17.77;48.77;96678.28;5092055;28;20052;-45
2024/03/29 04:46:54;;;;;;;4.25;2.00;;;;;;;17.83;48.79;96688.78;5090678;28;20024;-45
2024/03/29 04:49:30;;;;;;;4.00;2.08;;;;;;;17.87;48.63;96681.88;5091959;28;20102;-45
2024/03/29 04:51:57;;;;;;;4.07;1.25;;;;;;;17.84;48.49;96679.78;5091946;28;20045;-45
2024/03/29 04:54:23;;;;;;;2.80;1.10;;;;;;;17.85;48.92;96684.00;5091814;28;20090;-45
2024/03/29 04:56:48;;;;;;;4.30;1.20;;;;;;;17.80;48.75;96682.22;5091823;28;20417;-44
2024/03/29 04:59:17;;;;;;;3.88;1.55;;;;;;;17.75;48.90;96687.63;5090569;28;20035;-45
2024/03/29 05:01:44;;;;;;;5.00;1.40;;;;;;;17.68;49.14;96697.84;5091776;28;20020;-45
2024/03/29 05:04:10;;;;;;;4.88;1.17;;;;;;;17.58;49.35;96688.22;5090570;28;20106;-45
2024/03/29 05:06:36;;;;;;;4.72;1.45;;;;;;;17.50;49.77;96707.47;5091832;28;20091;-44
2024/03/29 05:09:02;;;;;;;5.32;1.90;;;;;;;17.42;50.90;96705.50;5090497;28;20075;-45
2024/03/29 05:11:27;;;;;;;7.57;1.60;;;;;;;17.32;51.52;96701.94;5090452;28;20020;-45
2024/03/29 05:13:53;;;;;;;7.45;1.88;;;;;;;17.37;51.56;96701.84;5091757;28;20028;-45
2024/03/29 05:16:21;;;;;;;4.93;1.23;;;;;;;17.49;51.09;96695.31;5090351;28;20021;-45
2024/03/29 05:18:47;;;;;;;3.28;1.27;;;;;;;17.45;51.32;96703.06;5091656;28;20051;-45
2024/03/29 05:21:13;;;;;;;8.63;1.75;;;;;;;17.42;51.44;96713.44;5091850;28;20405;-45
2024/03/29 05:23:39;;;;;;;8.30;1.50;;;;;;;17.43;52.62;96707.09;5090391;28;20032;-45
2024/03/29 05:26:04;;;;;;;7.07;1.48;;;;;;;17.52;52.24;96710.59;5091585;28;20077;-45
2024/03/29 05:28:30;;;;;;;4.07;1.02;;;;;;;17.56;51.87;96727.50;5091616;28;20027;-45
2024/03/29 05:30:56;;;;;;;14.25;4.25;;;;;;;17.44;52.47;96727.19;5091471;28;20036;-45
2024/03/29 05:33:21;;;;;;;6.78;2.70;;;;;;;17.30;52.96;96732.47;5091782;28;20016;-45
2024/03/29 05:35:47;;;;;;;5.72;4.15;;;;;;;17.32;52.66;96736.41;5095411;28;20043;-45
2024/03/29 05:38:13;;;;;;;5.32;2.42;;;;;;;17.36;53.11;96733.97;5095507;28;20505;-45
2024/03/29 05:40:38;;;;;;;6.75;1.17;;;;;;;17.39;52.66;96733.38;5095101;28;20465;-45
2024/03/29 05:43:04;;;;;;;5.47;1.33;;;;;;;17.30;53.73;96725.31;5094073;28;20032;-44
2024/03/29 05:45:30;;;;;;;4.85;1.88;;;;;;;17.15;53.71;96722.94;5095345;28;20024;-45
2024/03/29 05:47:58;;;;;;;9.30;2.35;;;;;;;17.16;55.90;96730.59;5095229;28;20028;-44
2024/03/29 05:50:24;;;;;;;4.90;1.38;;;;;;;17.21;55.22;96726.28;5095242;28;20398;-44
2024/03/29 05:52:52;;;;;;;8.27;2.45;;;;;;;17.28;53.71;96732.75;5093899;28;20032;-44
2024/03/29 05:55:18;;;;;;;5.70;1.38;;;;;;;17.36;53.20;96740.06;5095036;28;20032;-44
2024/03/29 05:57:48;;;;;;;11.35;3.10;;;;;;;17.32;53.50;96744.34;5095265;28;20105;-44
2024/03/29 06:00:14;;;;;;;7.32;1.92;;;;;;;17.46;54.37;96749.69;5094979;28;20056;-45
2024/03/29 06:02:44;;;;;;;11.00;1.92;;;;;;;17.59;53.58;96753.47;5094990;28;20030;-45
2024/03/29 06:05:10;;;;;;;8.52;2.00;;;;;;;17.75;52.67;96746.00;5095109;28;20046;-45
2024/03/29 06:07:36;;;;;;;7.03;1.85;;;;;;;17.89;52.56;96752.13;5093622;28;20020;-45
2024/03/29 06:10:04;;;;;;;7.78;1.60;;;;;;;17.93;51.83;96750.47;5094797;28;20036;-44
2024/03/29 06:12:32;;;;;;;9.77;3.17;;;;;;;17.96;51.76;96765.78;5093395;28;20121;-45
2024/03/29 06:17:42;;;;;;;9.85;3.25;;;;;;;18.27;50.86;96761.72;5094756;28;20166;-45
2024/03/29 06:20:08;;;;;;;3.20;1.02;;;;;;;18.32;50.39;96743.81;5094567;28;20496;-45
2024/03/29 06:22:34;;;;;;;3.08;1.45;;;;;;;18.30;50.20;96761.13;5094619;28;20024;-45
2024/03/29 06:25:04;;;;;;;11.10;1.92;;;;;;;18.42;50.75;96748.13;5093282;28;20482;-45
2024/03/29 06:27:34;;;;;;;8.93;4.35;;;;;;;18.58;50.14;96747.81;5094557;28;20398;-45
2024/03/29 06:30:00;;;;;;;3.75;1.35;;;;;;;18.70;49.39;96750.72;5094466;28;20447;-44
2024/03/29 06:32:26;;;;;;;9.30;2.30;;;;;;;18.93;49.29;96755.00;5094421;28;20095;-45
2024/03/29 06:34:52;;;;;;;6.35;2.17;;;;;;;19.16;49.07;96744.34;5094359;28;20101;-45
2024/03/29 06:37:21;;;;;;;5.25;1.40;;;;;;;19.31;48.18;96751.94;5094283;28;20059;-45
2024/03/29 06:39:48;;;;;;;10.85;2.53;;;;;;;19.43;48.43;96771.88;5094171;28;20028;-46
2024/03/29 06:42:13;;;;;;;8.68;2.47;;;;;;;19.48;47.12;96769.09;5092900;28;20036;-45
2024/03/29 06:44:39;;;;;;;15.52;2.55;;;;;;;19.51;48.53;96776.47;5093706;28;20042;-45
2024/03/29 06:47:05;;;;;;;7.80;1.98;;;;;;;19.71;47.28;96773.28;5093369;28;20046;-45
2024/03/29 06:49:32;;;;;;;6.15;1.83;;;;;;;19.74;47.30;96767.38;5092921;28;20024;-45
2024/03/29 06:52:01;;;;;;;5.95;1.23;;;;;;;19.79;46.87;96779.75;5094028;28;20030;-45
2024/03/29 06:54:32;;;;;;;5.50;1.60;;;;;;;19.63;46.91;96774.00;5092680;28;20032;-45
2024/03/29 06:56:57;;;;;;;13.23;1.38;;;;;;;19.59;47.34;96796.22;5093856;28;20024;-45
2024/03/29 06:59:23;;;;;;;9.23;1.65;;;;;;;19.64;47.29;96772.13;5092622;28;20039;-45
2024/03/29 07:01:52;;;;;;;6.10;1.75;;;;;;;19.46;48.14;96789.91;5093939;28;20055;-45
2024/03/29 07:04:22;;;;;;;7.78;1.65;;;;;;;19.42;48.72;96787.06;5094123;28;20419;-45
2024/03/29 07:06:51;;;;;;;8.20;1.50;;;;;;;19.36;48.38;96782.97;5093752;28;20055;-45
2024/03/29 07:09:20;;;;;;;8.88;1.88;;;;;;;19.35;49.26;96771.50;5093682;28;20036;-45
2024/03/29 07:11:47;;;;;;;18.13;2.22;;;;;;;19.23;48.97;96781.94;5092390;28;20032;-45
2024/03/29 07:14:17;;;;;;;7.90;2.10;;;;;;;19.03;50.11;96759.25;5093601;28;20166;-45
2024/03/29 07:16:43;;;;;;;13.27;8.13;;;;;;;18.86;50.86;96813.09;5092159;28;20035;-45
2024/03/29 07:19:12;;;;;;;7.28;2.05;;;;;;;18.74;50.51;96787.00;5092235;28;20027;-45
2024/03/29 07:21:41;;;;;;;6.75;2.13;;;;;;;18.63;51.54;96795.50;5093461;28;20031;-45
2024/03/29 07:24:07;;;;;;;12.55;2.55;;;;;;;18.67;51.58;96810.56;5093428;28;20054;-45
2024/03/29 07:26:33;;;;;;;12.25;2.20;;;;;;;18.74;52.10;96812.81;5093360;28;20016;-45
2024/03/29 07:28:59;;;;;;;6.82;2.08;;;;;;;18.88;51.07;96818.91;5093334;28;20806;-45
2024/03/29 07:31:24;;;;;;;6.57;2.38;;;;;;;18.90;50.78;96795.47;5093527;28;20077;-45
2024/03/29 07:33:50;;;;;;;8.32;1.55;;;;;;;18.91;50.97;96815.66;5093287;28;20103;-45
2024/03/29 07:36:16;;;;;;;6.63;1.50;;;;;;;19.03;51.18;96825.72;5091822;28;20024;-45
2024/03/29 07:38:43;;;;;;;7.35;1.75;;;;;;;19.35;50.04;96808.75;5091839;28;20062;-45
2024/03/29 07:41:10;;;;;;;7.30;1.52;;;;;;;19.50;48.73;96810.28;5092909;28;20044;-45
2024/03/29 07:44:00;;;;;;;3.92;1.50;;;;;;;19.68;48.68;96746.47;5093094;28;20038;-45
2024/03/29 07:46:32;;;;;;;4.30;1.40;;;;;;;19.92;48.21;96818.00;5091806;28;20020;-45
2024/03/29 07:48:58;;;;;;;9.07;2.03;;;;;;;20.24;48.14;96818.75;5092995;28;20042;-45
2024/03/29 07:51:23;;;;;;;6.10;2.63;;;;;;;20.23;46.89;96830.53;5093517;28;20024;-45
2024/03/29 07:53:49;;;;;;;7.53;1.85;;;;;;;20.19;46.39;96818.91;5092945;28;20028;-45
2024/03/29 07:56:16;;;;;;;5.25;1.40;;;;;;;20.09;46.90;96818.09;5092439;28;20492;-45
2024/03/29 07:58:42;;;;;;;6.70;1.48;;;;;;;20.06;47.00;96813.38;5091566;28;20058;-45
2024/03/29 08:01:08;;;;;;;7.18;1.88;;;;;;;20.06;49.36;96839.22;5092812;28;20243;-45
2024/03/29 08:03:34;;;;;;;6.38;1.88;;;;;;;20.21;48.54;96814.06;5092791;28;20587;-45
2024/03/29 08:06:06;;;;;;;4.53;1.52;;;;;;;20.34;47.14;96813.13;5092632;28;20066;-45
2024/03/29 08:08:33;;;;;;;5.45;1.58;;;;;;;20.32;46.63;96834.78;5092668;28;20095;-45
2024/03/29 08:11:00;;;;;;;5.28;1.35;;;;;;;20.37;45.40;96841.84;5092527;28;20370;-45
2024/03/29 08:13:26;;;;;;;4.80;1.27;;;;;;;20.25;46.31;96857.63;5091165;28;20058;-45
2024/03/29 08:16:00;;;;;;;8.48;3.55;;;;;;;20.18;46.82;96825.31;5091033;28;20027;-45
2024/03/29 08:18:26;;;;;;;3.90;1.05;;;;;;;20.39;45.40;96829.00;5091114;28;20020;-45
2024/03/29 08:20:54;;;;;;;6.82;1.25;;;;;;;20.49;47.17;96844.69;5091104;28;20024;-45
2024/03/29 08:23:23;;;;;;;4.25;1.02;;;;;;;20.46;45.83;96823.19;5092346;28;20027;-45
2024/03/29 08:25:51;;;;;;;6.78;1.38;;;;;;;20.54;47.59;96835.75;5091062;28;20024;-45
2024/03/29 08:28:17;;;;;;;6.47;4.82;;;;;;;20.75;46.63;96841.31;5092351;28;20070;-45
2024/03/29 08:30:43;;;;;;;7.75;2.40;;;;;;;21.13;45.91;96854.06;5092167;28;20024;-45
2024/03/29 08:33:09;;;;;;;5.00;2.08;;;;;;;21.33;44.15;96861.44;5092227;28;20032;-45
2024/03/29 08:35:35;;;;;;;3.75;1.30;;;;;;;21.49;43.88;96847.59;5090883;28;20482;-45
2024/03/29 08:38:01;;;;;;;5.43;2.28;;;;;;;21.64;44.53;96841.00;5092035;28;20108;-45
2024/03/29 08:40:34;;;;;;;3.75;1.70;;;;;;;21.68;42.85;96832.03;5090545;28;20478;-45
2024/03/29 08:43:00;;;;;;;5.07;1.75;;;;;;;21.94;42.53;96844.53;5092083;28;20031;-45
2024/03/29 08:45:25;;;;;;;5.00;1.50;;;;;;;22.08;40.92;96818.38;5090728;28;20024;-45
2024/03/29 08:47:51;;;;;;;9.23;2.15;;;;;;;22.39;41.54;96828.00;5092293;28;20012;-45
2024/03/29 08:50:17;;;;;;;6.18;2.30;;;;;;;22.87;39.94;96823.31;5091987;28;20451;-45
2024/03/29 08:52:44;;;;;;;4.18;1.63;;;;;;;23.19;39.63;96811.13;5091977;28;20050;-45
2024/03/29 08:55:10;;;;;;;4.07;1.20;;;;;;;23.41;39.97;96812.63;5091951;28;20397;-46
2024/03/29 08:57:35;;;;;;;7.78;1.70;;;;;;;23.47;38.65;96807.88;5090539;28;20039;-45
2024/03/29 09:00:01;;;;;;;5.47;1.33;;;;;;;23.26;37.15;96815.91;5090531;28;20055;-45
2024/03/29 09:02:27;;;;;;;5.55;1.35;;;;;;;23.19;38.18;96816.47;5090586;28;20024;-45
2024/03/29 09:04:53;;;;;;;3.72;1.27;;;;;;;23.03;38.15;96831.56;5091851;28;20023;-45
2024/03/29 09:07:18;;;;;;;2.65;1.05;;;;;;;23.16;37.97;96824.38;5091849;28;20044;-45
2024/03/29 09:09:44;;;;;;;4.88;1.10;;;;;;;23.38;36.77;96821.34;5094451;28;20028;-45
2024/03/29 09:12:10;;;;;;;6.70;1.83;;;;;;;23.17;37.75;96813.34;5096237;28;20103;-45
2024/03/29 09:14:36;;;;;;;10.90;2.95;;;;;;;23.32;37.82;96819.97;5095944;28;20028;-46
2024/03/29 09:17:02;;;;;;;4.47;1.77;;;;;;;23.75;37.18;96812.63;5095774;28;20024;-45
2024/03/29 09:19:30;;;;;;;3.15;0.85;;;;;;;23.88;35.92;96809.63;5096122;28;20020;-45
2024/03/29 09:21:56;;;;;;;6.10;1.23;;;;;;;23.76;35.96;96804.22;5095730;28;20030;-45
2024/03/29 09:24:22;;;;;;;5.65;1.40;;;;;;;23.60;36.57;96806.75;5094824;28;20024;-46
2024/03/29 09:26:50;;;;;;;3.40;1.13;;;;;;;23.57;36.02;96804.75;5094383;28;20020;-45
2024/03/29 09:29:17;;;;;;;1.48;0.73;;;;;;;23.44;35.62;96803.97;5095730;28;20027;-45
2024/03/29 09:31:43;;;;;;;5.05;1.10;;;;;;;23.06;36.09;96804.94;5094544;28;20030;-45
2024/03/29 09:34:09;;;;;;;7.78;1.85;;;;;;;22.76;36.07;96806.88;5094401;28;20028;-45
2024/03/29 09:36:35;;;;;;;4.88;2.20;;;;;;;22.79;36.48;96832.19;5094133;28;20032;-45
2024/03/29 09:39:01;;;;;;;8.23;1.27;;;;;;;22.84;35.66;96814.06;5095436;28;20065;-45
2024/03/29 09:41:28;;;;;;;5.97;1.75;;;;;;;22.67;34.91;96809.59;5093896;28;20548;-45
2024/03/29 09:43:57;;;;;;;6.75;2.88;;;;;;;22.72;34.75;96816.66;5095658;28;20425;-45
2024/03/29 09:46:25;;;;;;;8.68;1.27;;;;;;;22.69;33.71;96803.94;5095389;28;20024;-45
2024/03/29 09:48:53;;;;;;;4.00;1.60;;;;;;;22.46;34.04;96817.59;5095247;28;20027;-45
2024/03/29 09:51:21;;;;;;;9.48;1.63;;;;;;;22.37;34.44;96806.16;5093932;28;20512;-45
2024/03/29 09:53:47;;;;;;;6.93;1.38;;;;;;;22.39;34.00;96806.63;5093864;28;20020;-45
2024/03/29 09:56:13;;;;;;;10.65;3.05;;;;;;;22.44;34.46;96801.09;5093790;28;20506;-45
2024/03/29 09:58:39;;;;;;;6.10;1.90;;;;;;;22.37;33.60;96795.47;5095099;28;20035;-45
2024/03/29 10:01:06;;;;;;;5.85;1.55;;;;;;;22.32;34.04;96815.16;5095001;28;20035;-45
2024/03/29 10:03:38;;;;;;;11.60;1.92;;;;;;;22.30;34.01;96829.97;5093778;28;20029;-45
2024/03/29 10:06:04;;;;;;;6.93;1.70;;;;;;;22.12;34.06;96813.19;5095005;28;20024;-45
2024/03/29 10:08:31;;;;;;;9.15;2.42;;;;;;;21.99;37.38;96820.31;5094967;28;20221;-45
2024/03/29 10:10:57;;;;;;;9.23;2.17;;;;;;;22.19;36.88;96815.34;5093573;28;20525;-45
2024/03/29 10:13:23;;;;;;;14.65;1.65;;;;;;;22.45;35.16;96829.38;5093539;28;20024;-45
2024/03/29 10:15:51;;;;;;;5.82;1.80;;;;;;;22.47;35.50;96810.34;5093375;28;20028;-45
2024/03/29 10:18:19;;;;;;;20.75;4.22;;;;;;;22.53;34.40;96817.84;5093472;28;20028;-45
2024/03/29 10:20:45;;;;;;;10.35;3.70;;;;;;;22.71;34.30;96809.72;5094318;28;20027;-45
2024/03/29 10:23:11;;;;;;;29.65;6.57;;;;;;;22.87;34.96;96820.63;5094652;28;20398;-45
2024/03/29 10:25:37;;;;;;;12.15;2.42;;;;;;;23.01;33.33;96815.03;5094558;28;20047;-45
2024/03/29 10:28:02;;;;;;;13.35;1.88;;;;;;;22.74;32.88;96807.19;5094487;28;20016;-45
2024/03/29 10:30:29;;;;;;;19.63;4.93;;;;;;;22.54;34.57;96803.41;5093176;28;20027;-45
2024/03/29 10:32:58;;;;;;;20.90;3.72;;;;;;;22.49;34.64;96802.78;5094447;28;20094;-45
2024/03/29 10:35:26;;;;;;;14.15;3.40;;;;;;;22.59;35.93;96796.28;5093055;28;20028;-45
2024/03/29 10:37:55;;;;;;;14.77;3.67;;;;;;;22.78;35.17;96785.94;5093067;28;20133;-45
2024/03/29 10:40:24;;;;;;;7.30;2.72;;;;;;;22.77;34.12;96789.72;5094162;28;20051;-46
2024/03/29 10:42:51;;;;;;;13.77;2.92;;;;;;;22.46;33.93;96782.06;5094308;28;20493;-45
2024/03/29 10:45:17;;;;;;;13.55;2.75;;;;;;;22.23;34.45;96784.97;5094263;28;20035;-45
2024/03/29 10:47:44;;;;;;;19.10;2.85;;;;;;;22.25;34.45;96793.50;5092891;28;20389;-45
2024/03/29 10:50:13;;;;;;;10.73;2.45;;;;;;;22.34;34.60;96788.91;5094030;28;20081;-45
2024/03/29 10:52:43;;;;;;;17.77;2.35;;;;;;;22.34;34.06;96804.16;5092792;28;20063;-45
2024/03/29 10:55:11;;;;;;;12.95;2.53;;;;;;;22.41;33.47;96791.03;5094252;28;20024;-45
2024/03/29 10:57:42;;;;;;;10.95;3.78;;;;;;;22.54;33.77;96787.34;5093899;28;20028;-45
2024/03/29 11:00:14;;;;;;;18.67;3.08;;;;;;;22.80;33.55;96796.28;5093951;28;20489;-45
2024/03/29 11:02:51;;;;;;;23.48;2.20;;;;;;;22.79;33.92;96781.38;5093889;28;20090;-45
2024/03/29 11:05:17;;;;;;;15.68;2.30;;;;;;;23.00;33.11;96784.81;5093830;28;20031;-45
2024/03/29 11:07:45;;;;;;;12.07;2.40;;;;;;;23.18;32.97;96772.09;5094019;28;20441;-45
2024/03/29 11:10:48;;;;;;;13.23;2.50;;;;;;;23.22;33.04;96778.34;5093730;28;20039;-45
2024/03/29 11:13:29;;;;;;;11.15;2.35;;;;;;;23.24;32.75;96770.78;5014624;28;20025;-45
2024/03/29 11:15:55;;;;;;;12.90;2.40;;;;;;;23.44;32.65;96761.13;5014611;28;20030;-46
2024/03/29 11:18:24;;;;;;;15.77;2.67;;;;;;;23.72;31.63;96763.16;5014682;28;20562;-46
2024/03/29 11:20:51;;;;;;;16.45;2.80;;;;;;;23.95;31.80;96760.09;5031113;28;20034;-45
2024/03/29 11:23:22;;;;;;;14.63;2.45;;;;;;;24.41;31.05;96750.78;5014555;28;20052;-45
2024/03/29 11:25:59;;;;;;;16.02;2.60;;;;;;;24.81;30.70;96743.88;5031025;28;20414;-45
2024/03/29 11:28:35;;;;;;;15.15;3.30;;;;;;;25.17;31.12;96742.94;5014455;28;20044;-45
2024/03/29 11:31:05;;;;;;;12.00;2.72;;;;;;;25.44;30.10;96735.22;5013887;28;20036;-45
2024/03/29 11:33:36;;;;;;;14.20;2.45;;;;;;;25.40;29.11;96745.09;5030761;28;20079;-46
2024/03/29 11:36:11;;;;;;;14.23;2.72;;;;;;;25.39;29.31;96727.41;5014251;28;20091;-46